createdAt,value
2022-11-21T10:40:47.451Z,100283.31
2022-11-21T10:43:50.209Z,100279.81
2022-11-21T10:46:18.321Z,100279.81
2022-11-21T10:48:49.225Z,100271.97
2022-11-21T10:51:26.523Z,100271.13
2022-11-21T10:54:22.382Z,100273.06
2022-11-21T10:56:53.354Z,100270.53
2022-11-21T10:59:29.820Z,100271.63
2022-11-21T11:01:59.946Z,100274.16
2022-11-21T11:04:31.013Z,100261.72
2022-11-21T11:07:20.953Z,100257.28
2022-11-21T11:09:49.108Z,100244.25
2022-11-21T11:12:47.193Z,100229.31
2022-11-21T11:15:19.496Z,100245.00
2022-11-21T11:17:51.004Z,100244.03
2022-11-21T11:20:30.716Z,100240.44
2022-11-21T11:22:58.804Z,100239.56
2022-11-21T11:25:26.827Z,100242.09
2022-11-21T11:27:56.681Z,100236.06
2022-11-21T11:30:24.732Z,100235.00
2022-11-21T11:32:52.826Z,100230.66
2022-11-21T11:35:23.278Z,100231.38
2022-11-21T11:37:59.096Z,100228.50
2022-11-21T11:40:31.057Z,100226.69
2022-11-21T11:43:25.154Z,100230.44
2022-11-21T11:46:25.049Z,100238.13
2022-11-21T11:49:19.168Z,100233.69
2022-11-21T11:51:47.138Z,100245.97
2022-11-21T11:54:18.901Z,100241.50
2022-11-21T11:56:47.989Z,100234.63
2022-11-21T11:59:21.031Z,100224.41
2022-11-21T12:01:53.258Z,100222.59
2022-11-21T12:04:22.183Z,100223.44
2022-11-21T12:07:46.638Z,100228.97
2022-11-21T12:09:46.151Z,100224.41
2022-11-21T12:15:30.081Z,100215.84
2022-11-21T12:18:08.788Z,100216.69
2022-11-21T12:20:38.396Z,100231.97
2022-11-21T12:23:07.754Z,100236.56
2022-11-21T12:25:39.423Z,100228.94
2022-11-21T12:28:11.489Z,100227.63
2022-11-21T12:30:51.080Z,100230.50
2022-11-21T12:33:22.127Z,100237.09
2022-11-21T12:36:17.484Z,100227.72
2022-11-21T12:38:53.713Z,100226.50
2022-11-21T12:41:45.985Z,100241.69
2022-11-21T12:44:23.513Z,100239.50
2022-11-21T12:47:01.195Z,100245.16
2022-11-21T12:49:54.797Z,100246.69
2022-11-21T12:52:42.304Z,100234.31
2022-11-21T12:55:16.828Z,100235.41
2022-11-21T12:57:57.873Z,100238.28
2022-11-21T13:00:29.213Z,100226.84
2022-11-21T13:03:21.535Z,100225.16
2022-11-21T13:05:51.433Z,100217.44
2022-11-21T13:08:24.618Z,100220.09
2022-11-21T13:11:17.089Z,100230.69
2022-11-21T13:13:47.168Z,100214.66
2022-11-21T13:16:36.943Z,100208.41
2022-11-21T13:19:13.829Z,100211.41
2022-11-21T13:21:42.404Z,100210.44
2022-11-21T13:24:10.826Z,100208.75
2022-11-21T13:26:52.967Z,100213.06
2022-11-21T13:29:21.081Z,100216.47
2022-11-21T13:31:49.299Z,100213.81
2022-11-21T13:34:38.574Z,100215.63
2022-11-21T13:37:06.726Z,100211.31
2022-11-21T13:39:38.841Z,100199.84
2022-11-21T13:42:33.568Z,100199.00
2022-11-21T13:45:16.456Z,100204.28
2022-11-21T13:48:12.269Z,100198.28
2022-11-21T13:50:59.068Z,100209.72
2022-11-21T13:53:40.004Z,100214.28
2022-11-21T13:56:12.970Z,100213.56
2022-11-21T13:58:50.564Z,100205.72
2022-11-21T14:01:36.608Z,100204.78
2022-11-21T14:04:22.957Z,100210.19
2022-11-21T14:06:51.101Z,100209.34
2022-11-21T14:09:28.469Z,100201.38
2022-11-21T14:11:58.764Z,100207.66
2022-11-21T14:14:31.688Z,100203.66
2022-11-21T14:17:19.935Z,100210.59
2022-11-21T14:19:49.553Z,100202.28
2022-11-21T14:22:28.127Z,100205.53
2022-11-21T14:25:02.213Z,100200.97
2022-11-21T14:27:32.180Z,100198.41
2022-11-21T14:30:00.335Z,100194.00
2022-11-21T14:32:29.106Z,100194.00
2022-11-21T14:35:10.480Z,100195.69
2022-11-21T14:37:41.680Z,100194.94
2022-11-21T14:40:14.166Z,100200.56
2022-11-21T14:42:42.345Z,100199.59
2022-11-21T14:45:17.720Z,100197.09
2022-11-21T14:47:50.185Z,100201.31
2022-11-21T14:50:25.577Z,100201.53
2022-11-21T14:52:57.495Z,100208.03
2022-11-21T14:55:30.940Z,100201.63
2022-11-21T14:58:00.549Z,100201.63
2022-11-21T15:00:58.594Z,100206.53
2022-11-21T15:03:19.804Z,100204.16
2022-11-21T15:06:02.175Z,100202.91
2022-11-21T15:09:03.237Z,100200.47
2022-11-21T15:11:24.762Z,100187.13
2022-11-21T15:16:42.908Z,100186.16
2022-11-21T15:19:11.310Z,100180.88
2022-11-21T15:21:46.537Z,100188.72
2022-11-21T15:24:18.679Z,100191.72
2022-11-21T15:26:48.288Z,100185.44
2022-11-21T15:29:21.304Z,100182.91
2022-11-21T15:32:04.134Z,100181.97
2022-11-21T15:34:36.540Z,100176.53
2022-11-21T15:37:08.288Z,100169.44
2022-11-21T15:39:37.958Z,100167.53
2022-11-21T15:42:24.733Z,100171.16
2022-11-21T15:45:00.514Z,100167.97
2022-11-21T15:47:28.911Z,100163.03
2022-11-21T15:49:56.996Z,100169.31
2022-11-21T15:52:25.161Z,100169.31
2022-11-21T15:54:53.214Z,100162.66
2022-11-21T15:57:22.308Z,100165.78
2022-11-21T15:59:50.778Z,100174.06
2022-11-21T16:02:20.402Z,100170.38
2022-11-21T16:04:49.545Z,100177.34
2022-11-21T16:07:17.985Z,100170.22
2022-11-21T16:09:46.320Z,100164.00
2022-11-21T16:12:14.486Z,100168.22
2022-11-21T16:14:42.547Z,100175.94
2022-11-21T16:17:10.572Z,100182.06
2022-11-21T16:19:40.003Z,100176.66
2022-11-21T16:22:08.077Z,100171.25
2022-11-21T16:24:36.084Z,100167.63
2022-11-21T16:27:04.215Z,100173.81
2022-11-21T16:29:32.321Z,100171.16
2022-11-21T16:32:00.399Z,100179.19
2022-11-21T16:34:28.672Z,100175.56
2022-11-21T16:37:00.658Z,100174.88
2022-11-21T16:39:32.661Z,100174.72
2022-11-21T16:42:01.072Z,100178.13
2022-11-21T16:44:31.045Z,100170.19
2022-11-21T16:47:02.408Z,100171.88
2022-11-21T16:49:34.828Z,100173.44
2022-11-21T16:52:04.276Z,100171.66
2022-11-21T16:54:32.354Z,100179.81
2022-11-21T16:57:00.445Z,100177.06
2022-11-21T16:59:28.749Z,100175.25
2022-11-21T17:01:56.953Z,100171.66
2022-11-21T17:04:25.008Z,100168.38
2022-11-21T17:06:53.382Z,100161.50
2022-11-21T17:09:22.874Z,100153.78
2022-11-21T17:11:50.890Z,100150.31
2022-11-21T17:14:18.992Z,100148.50
2022-11-21T17:16:48.978Z,100145.84
2022-11-21T17:19:17.402Z,100147.44
2022-11-21T17:21:45.536Z,100147.34
2022-11-21T17:24:13.891Z,100142.03
2022-11-21T17:26:43.354Z,100139.50
2022-11-21T17:29:11.407Z,100128.91
2022-11-21T17:31:41.956Z,100130.50
2022-11-21T17:34:10.207Z,100136.13
2022-11-21T17:36:38.272Z,100135.03
2022-11-21T17:39:06.358Z,100137.69
2022-11-21T17:41:34.403Z,100138.53
2022-11-21T17:44:03.890Z,100127.94
2022-11-21T17:46:32.142Z,100128.06
2022-11-21T17:49:00.510Z,100128.06
2022-11-21T17:51:29.624Z,100129.88
2022-11-21T17:53:57.978Z,100130.72
2022-11-21T17:56:27.317Z,100133.38
2022-11-21T17:58:55.701Z,100136.13
2022-11-21T18:01:25.289Z,100144.16
2022-11-21T18:03:56.020Z,100141.97
2022-11-21T18:06:24.565Z,100148.84
2022-11-21T18:08:52.943Z,100147.03
2022-11-21T18:11:22.285Z,100150.66
2022-11-21T18:13:50.705Z,100138.50
2022-11-21T18:16:20.734Z,100138.25
2022-11-21T18:18:50.340Z,100138.72
2022-11-21T18:21:19.742Z,100130.56
2022-11-21T18:23:48.132Z,100124.53
2022-11-21T18:26:16.711Z,100119.47
2022-11-21T18:28:44.772Z,100114.28
2022-11-21T18:31:13.897Z,100119.47
2022-11-21T18:33:42.780Z,100110.56
2022-11-21T18:36:13.147Z,100112.50
2022-11-21T18:38:56.074Z,100111.03
2022-11-21T18:41:29.311Z,100103.22
2022-11-21T18:43:58.288Z,100104.28
2022-11-21T18:46:27.001Z,100103.78
2022-11-21T18:49:02.749Z,100097.44
2022-11-21T18:51:34.818Z,100088.31
2022-11-21T18:54:05.454Z,100088.94
2022-11-21T18:56:33.669Z,100090.59
2022-11-21T18:59:03.552Z,100089.53
2022-11-21T19:01:32.077Z,100098.19
2022-11-21T19:04:00.464Z,100083.28
2022-11-21T19:06:28.981Z,100078.97
2022-11-21T19:08:59.288Z,100085.31
2022-11-21T19:11:28.235Z,100077.50
2022-11-21T19:13:56.879Z,100076.03
2022-11-21T19:16:25.812Z,100075.09
2022-11-21T19:21:43.652Z,100076.03
2022-11-21T19:24:14.402Z,100076.88
2022-11-21T19:26:42.825Z,100073.28
2022-11-21T19:29:11.034Z,100072.53
2022-11-21T19:31:45.346Z,100066.19
2022-11-21T19:34:14.362Z,100060.88
2022-11-21T19:36:42.836Z,100056.34
2022-11-21T19:39:10.994Z,100061.03
2022-11-21T19:41:40.807Z,100065.56
2022-11-21T19:44:08.954Z,100057.41
2022-11-21T19:46:37.637Z,100055.59
2022-11-21T19:49:06.731Z,100055.59
2022-11-21T19:51:36.435Z,100053.09
2022-11-21T19:54:04.585Z,100051.50
2022-11-21T19:56:32.783Z,100057.63
2022-11-21T19:59:02.300Z,100050.16
2022-11-21T20:01:31.680Z,100050.06
2022-11-21T20:04:00.577Z,100038.72
2022-11-21T20:06:30.871Z,100028.91
2022-11-21T20:08:59.993Z,100029.59
2022-11-21T20:11:29.121Z,100017.22
2022-11-21T20:13:57.668Z,100018.19
2022-11-21T20:16:28.150Z,100022.75
2022-11-21T20:18:57.766Z,100028.75
2022-11-21T20:21:25.868Z,100032.47
2022-11-21T20:23:54.192Z,100033.56
2022-11-21T20:26:23.215Z,100027.09
2022-11-21T20:28:51.366Z,100030.56
2022-11-21T20:31:20.459Z,100029.59
2022-11-21T20:33:50.697Z,100028.66
2022-11-21T20:36:19.911Z,100026.13
2022-11-21T20:38:51.112Z,100035.03
2022-11-21T20:41:19.196Z,100029.72
2022-11-21T20:46:35.710Z,100029.22
2022-11-21T20:49:05.156Z,100024.28
2022-11-21T20:54:21.359Z,100017.09
2022-11-21T20:56:49.483Z,100025.59
2022-11-21T20:59:17.545Z,100029.19
2022-11-21T21:01:45.692Z,100032.66
2022-11-21T21:04:15.214Z,100032.78
2022-11-21T21:06:43.263Z,100018.81
2022-11-21T21:09:11.338Z,100016.09
2022-11-21T21:11:54.664Z,100016.94
2022-11-21T21:14:22.862Z,100016.69
2022-11-21T21:16:51.270Z,100004.44
2022-11-21T21:19:21.628Z,100006.22
2022-11-21T21:21:49.818Z,100012.47
2022-11-21T21:24:18.526Z,100020.19
2022-11-21T21:26:47.678Z,100003.34
2022-11-21T21:29:17.439Z,99998.19
2022-11-21T21:31:50.484Z,99991.84
2022-11-21T21:34:20.949Z,99990.13
2022-11-21T21:36:49.143Z,99974.75
2022-11-21T21:39:17.198Z,99983.75
2022-11-21T21:41:46.925Z,99976.66
2022-11-21T21:44:15.948Z,99993.47
2022-11-21T21:46:44.212Z,99996.00
2022-11-21T21:49:12.375Z,99992.75
2022-11-21T21:51:41.866Z,99995.84
2022-11-21T21:54:16.190Z,99993.19
2022-11-21T21:56:44.234Z,99983.81
2022-11-21T21:59:12.310Z,99990.53
2022-11-21T22:01:40.494Z,99981.06
2022-11-21T22:04:08.589Z,99987.50
2022-11-21T22:06:36.912Z,99984.53
2022-11-21T22:09:06.489Z,99989.09
2022-11-21T22:11:37.963Z,99984.78
2022-11-21T22:14:07.599Z,99982.47
2022-11-21T22:16:35.653Z,99979.22
2022-11-21T22:19:03.830Z,99971.50
2022-11-21T22:21:33.509Z,99960.94
2022-11-21T22:24:24.072Z,99959.59
2022-11-21T22:26:51.773Z,99955.63
2022-11-21T22:29:19.885Z,99946.94
2022-11-21T22:31:47.963Z,99942.72
2022-11-21T22:34:16.049Z,99935.38
2022-11-21T22:36:44.871Z,99933.47
2022-11-21T22:39:12.937Z,99925.63
2022-11-21T22:41:40.993Z,99908.09
2022-11-21T22:44:10.445Z,99905.13
2022-11-21T22:46:38.740Z,99892.44
2022-11-21T22:49:06.833Z,99892.28
2022-11-21T22:51:34.929Z,99887.00
2022-11-21T22:54:03.000Z,99881.72
2022-11-21T22:56:31.062Z,99881.84
2022-11-21T22:58:59.203Z,99875.25
2022-11-21T23:01:28.853Z,99868.16
2022-11-21T23:03:57.052Z,99868.78
2022-11-21T23:06:26.187Z,99868.41
2022-11-21T23:08:55.603Z,99865.88
2022-11-21T23:11:24.696Z,99863.63
2022-11-21T23:13:53.448Z,99858.09
2022-11-21T23:16:21.725Z,99857.13
2022-11-21T23:18:52.744Z,99853.28
2022-11-21T23:21:20.892Z,99864.47
2022-11-21T23:23:49.132Z,99860.91
2022-11-21T23:26:17.181Z,99865.31
2022-11-21T23:28:45.269Z,99859.41
2022-11-21T23:31:13.332Z,99855.72
2022-11-21T23:33:41.379Z,99854.88
2022-11-21T23:36:10.889Z,99855.72
2022-11-21T23:38:39.283Z,99853.19
2022-11-21T23:41:07.346Z,99842.03
2022-11-21T23:43:35.431Z,99832.88
2022-11-21T23:46:03.471Z,99835.53
2022-11-21T23:48:31.586Z,99824.72
2022-11-21T23:50:59.750Z,99821.34
2022-11-21T23:53:29.269Z,99818.72
2022-11-21T23:55:57.337Z,99811.75
2022-11-21T23:58:25.465Z,99805.84
